Time;durP1;ratioP1;P1;durP2;ratioP2;P2;SDS_P1;SDS_P2;PMS_P1;PMS_P2;Temp;Humidity;BMP_temperature;BMP_pressure;BME280_temperature;BME280_humidity;BME280_pressure;Samples;Min_cycle;Max_cycle;Signal;HPM_P1;HPM_P2
2023/04/24 00:01:24;;;;;;;2.50;0.60;;;11.10;99.90;;;;;;5035334;28;20098;-82
2023/04/24 00:03:50;;;;;;;0.82;0.57;;;11.10;99.90;;;;;;5035379;28;20420;-82
2023/04/24 00:06:17;;;;;;;1.92;0.80;;;11.20;99.90;;;;;;5034460;28;20449;-82
2023/04/24 00:08:42;;;;;;;4.95;0.73;;;11.20;99.90;;;;;;5034805;28;20029;-82
2023/04/24 00:11:09;;;;;;;2.85;1.33;;;11.20;99.90;;;;;;5034177;28;20384;-82
2023/04/24 00:13:34;;;;;;;2.47;0.70;;;11.20;99.90;;;;;;5034116;28;20057;-82
2023/04/24 00:16:00;;;;;;;3.00;1.05;;;11.20;99.90;;;;;;5034898;28;20072;-82
2023/04/24 00:18:26;;;;;;;2.78;0.90;;;11.20;99.90;;;;;;5034557;28;20454;-82
2023/04/24 00:20:52;;;;;;;3.05;0.88;;;11.20;99.90;;;;;;5034182;28;20025;-82
2023/04/24 00:23:17;;;;;;;2.30;1.05;;;11.20;99.90;;;;;;5034515;28;20021;-81
2023/04/24 00:25:43;;;;;;;2.20;1.08;;;11.20;99.90;;;;;;5035379;28;20034;-81
2023/04/24 00:28:08;;;;;;;4.53;1.33;;;11.20;99.90;;;;;;5033954;28;20025;-82
2023/04/24 00:30:34;;;;;;;3.05;1.00;;;11.20;99.90;;;;;;5034478;28;20018;-82
2023/04/24 00:33:00;;;;;;;4.30;1.30;;;11.20;99.90;;;;;;5033274;28;20049;-81
2023/04/24 00:35:25;;;;;;;2.90;1.10;;;11.20;99.90;;;;;;5034573;28;20141;-82
2023/04/24 00:37:51;;;;;;;1.98;1.15;;;11.20;99.90;;;;;;5034788;28;20167;-82
2023/04/24 00:40:16;;;;;;;3.10;1.42;;;11.10;99.90;;;;;;5033570;28;20052;-82
2023/04/24 00:42:43;;;;;;;2.55;1.70;;;11.10;99.90;;;;;;5034890;28;20381;-81
2023/04/24 00:45:09;;;;;;;2.22;1.50;;;11.20;99.90;;;;;;5034613;28;20037;-82
2023/04/24 00:47:35;;;;;;;4.05;1.48;;;11.20;99.90;;;;;;5033802;28;20064;-82
2023/04/24 00:50:03;;;;;;;2.65;1.75;;;11.10;99.90;;;;;;5033955;28;20033;-82
2023/04/24 00:52:31;;;;;;;3.83;1.50;;;11.20;99.90;;;;;;5034655;28;20057;-82
2023/04/24 00:54:56;;;;;;;5.03;1.70;;;11.20;99.90;;;;;;5033117;28;20049;-82
2023/04/24 00:57:23;;;;;;;3.13;1.75;;;11.30;99.90;;;;;;5033865;28;20436;-82
2023/04/24 00:59:49;;;;;;;5.50;1.55;;;11.30;99.90;;;;;;5034491;28;20025;-82
2023/04/24 01:02:15;;;;;;;1.65;1.40;;;11.30;99.90;;;;;;5032811;28;20040;-82
2023/04/24 01:04:41;;;;;;;1.70;1.60;;;11.30;99.90;;;;;;5033606;28;20088;-82
2023/04/24 01:07:10;;;;;;;3.78;1.83;;;11.30;99.90;;;;;;5033731;28;20108;-82
2023/04/24 01:09:37;;;;;;;7.75;1.83;;;11.30;99.90;;;;;;5033353;28;20033;-82
2023/04/24 01:12:03;;;;;;;2.88;2.17;;;11.30;99.90;;;;;;5033557;28;20028;-82
2023/04/24 01:14:30;;;;;;;2.40;2.13;;;11.30;99.90;;;;;;5034026;28;20025;-82
2023/04/24 01:16:57;;;;;;;3.83;2.10;;;11.30;99.90;;;;;;5033158;28;20443;-82
2023/04/24 01:19:23;;;;;;;2.90;2.05;;;11.30;99.90;;;;;;5033379;28;20029;-82
2023/04/24 01:21:52;;;;;;;2.90;2.17;;;11.30;99.90;;;;;;5033865;28;20079;-82
2023/04/24 01:24:19;;;;;;;2.70;1.98;;;11.30;99.90;;;;;;5032614;28;20067;-82
2023/04/24 01:26:45;;;;;;;2.97;2.00;;;11.30;99.90;;;;;;5034003;28;20029;-82
2023/04/24 01:29:11;;;;;;;2.78;2.58;;;11.30;99.90;;;;;;5032963;28;20075;-82
2023/04/24 01:31:36;;;;;;;2.92;2.25;;;11.30;99.90;;;;;;5033639;28;20075;-82
2023/04/24 01:34:03;;;;;;;3.33;2.58;;;11.40;99.90;;;;;;5032611;28;20021;-82
2023/04/24 01:36:29;;;;;;;2.33;1.60;;;11.40;99.90;;;;;;5032465;28;20045;-81
2023/04/24 01:38:55;;;;;;;2.70;2.50;;;11.30;99.90;;;;;;5033483;28;20132;-82
2023/04/24 01:41:21;;;;;;;3.25;2.50;;;11.30;99.90;;;;;;5033143;28;20113;-82
2023/04/24 01:43:48;;;;;;;3.17;2.88;;;11.30;99.90;;;;;;5032865;28;20023;-82
2023/04/24 01:46:14;;;;;;;3.42;2.80;;;11.30;99.90;;;;;;5033106;28;20116;-82
2023/04/24 01:48:41;;;;;;;3.65;3.40;;;11.30;99.90;;;;;;5032438;28;20034;-82
2023/04/24 01:51:06;;;;;;;4.22;3.83;;;11.30;99.90;;;;;;5013210;28;20113;-82
2023/04/24 01:53:32;;;;;;;3.35;3.15;;;11.30;99.90;;;;;;5013545;28;20448;-82
2023/04/24 01:55:58;;;;;;;3.53;2.70;;;11.30;99.90;;;;;;5013060;28;20049;-82
2023/04/24 01:58:23;;;;;;;3.42;2.65;;;11.30;99.90;;;;;;5012129;28;20026;-82
2023/04/24 02:00:49;;;;;;;3.58;3.30;;;11.30;99.90;;;;;;5013477;28;20058;-82
2023/04/24 02:03:14;;;;;;;2.42;2.22;;;11.30;99.90;;;;;;5012134;28;20022;-82
2023/04/24 02:05:43;;;;;;;2.80;2.55;;;11.40;99.90;;;;;;5012507;28;20034;-83
2023/04/24 02:08:08;;;;;;;3.20;2.50;;;11.40;99.90;;;;;;5012652;28;20378;-82
2023/04/24 02:10:34;;;;;;;3.83;3.00;;;11.60;99.90;;;;;;5012847;28;20021;-82
2023/04/24 02:13:00;;;;;;;5.20;3.33;;;11.50;99.90;;;;;;5012334;28;20389;-82
2023/04/24 02:15:26;;;;;;;3.30;3.00;;;11.40;99.90;;;;;;5012912;28;20084;-83
2023/04/24 02:17:51;;;;;;;3.75;3.22;;;11.40;99.90;;;;;;5012020;28;20455;-82
2023/04/24 02:20:17;;;;;;;3.05;2.72;;;11.40;99.90;;;;;;5011935;28;20026;-83
2023/04/24 02:22:43;;;;;;;6.13;3.72;;;11.30;99.90;;;;;;5013060;28;20104;-83
2023/04/24 02:25:08;;;;;;;5.13;3.47;;;11.30;99.90;;;;;;5012916;28;20034;-82
2023/04/24 02:27:34;;;;;;;8.93;4.55;;;11.30;99.90;;;;;;5012070;28;20451;-83
2023/04/24 02:30:00;;;;;;;4.43;4.03;;;11.30;99.90;;;;;;5012556;28;20033;-82
2023/04/24 02:32:26;;;;;;;3.72;3.42;;;11.30;99.90;;;;;;5011748;28;20022;-82
2023/04/24 02:34:51;;;;;;;4.13;3.72;;;11.80;99.90;;;;;;5012695;28;20465;-82
2023/04/24 02:37:17;;;;;;;3.97;3.33;;;11.40;99.90;;;;;;5012557;28;20485;-82
2023/04/24 02:39:42;;;;;;;4.93;3.47;;;11.30;99.90;;;;;;5012229;28;20041;-82
2023/04/24 02:42:08;;;;;;;5.88;3.75;;;11.40;99.90;;;;;;5012385;28;20022;-83
2023/04/24 02:44:33;;;;;;;3.40;2.13;;;11.30;99.90;;;;;;5012842;28;20068;-83
2023/04/24 02:46:59;;;;;;;2.92;1.90;;;11.30;99.90;;;;;;5011682;28;20496;-82
2023/04/24 02:49:25;;;;;;;3.13;2.42;;;11.30;99.90;;;;;;5012757;28;20045;-82
2023/04/24 02:51:51;;;;;;;4.45;2.58;;;11.30;99.90;;;;;;5012535;28;20123;-82
2023/04/24 02:54:16;;;;;;;3.17;2.83;;;11.40;99.90;;;;;;5011614;28;20113;-82
2023/04/24 02:56:42;;;;;;;3.25;2.63;;;11.40;99.90;;;;;;5012023;28;20552;-82
2023/04/24 02:59:09;;;;;;;4.05;3.35;;;11.40;99.90;;;;;;5012183;28;20069;-82
2023/04/24 03:01:35;;;;;;;4.32;3.63;;;11.40;99.90;;;;;;5011589;28;20030;-81
2023/04/24 03:04:00;;;;;;;3.10;2.90;;;11.40;99.90;;;;;;5011673;28;20026;-82
2023/04/24 03:06:26;;;;;;;3.97;3.58;;;11.30;99.90;;;;;;5012385;28;20033;-82
2023/04/24 03:08:52;;;;;;;4.25;3.13;;;11.40;99.90;;;;;;5011864;28;20068;-83
2023/04/24 03:11:18;;;;;;;2.65;2.13;;;11.40;99.90;;;;;;5012177;28;20030;-83
2023/04/24 03:13:43;;;;;;;3.78;2.30;;;11.30;99.90;;;;;;5012330;28;20045;-83
2023/04/24 03:16:09;;;;;;;1.40;1.30;;;11.30;99.90;;;;;;5011323;28;20389;-83
2023/04/24 03:18:34;;;;;;;2.40;1.42;;;11.30;99.90;;;;;;5011530;28;20109;-83
2023/04/24 03:21:00;;;;;;;1.30;1.20;;;11.20;99.90;;;;;;5011853;28;20429;-83
2023/04/24 03:23:26;;;;;;;1.27;1.17;;;11.20;99.90;;;;;;5011752;28;20025;-82
2023/04/24 03:25:52;;;;;;;1.25;1.10;;;11.20;99.90;;;;;;5012139;28;20022;-82
2023/04/24 03:28:17;;;;;;;0.80;0.80;;;11.10;99.90;;;;;;5013508;28;20037;-82
2023/04/24 03:30:43;;;;;;;1.17;1.08;;;11.10;99.90;;;;;;5015345;28;20030;-82
2023/04/24 03:33:09;;;;;;;1.25;1.00;;;11.10;99.90;;;;;;5015378;28;20025;-82
2023/04/24 03:35:36;;;;;;;1.60;1.10;;;11.00;99.90;;;;;;5015885;28;20037;-82
2023/04/24 03:38:01;;;;;;;1.25;0.80;;;11.00;99.90;;;;;;5015239;28;20036;-82
2023/04/24 03:40:29;;;;;;;1.45;1.00;;;11.00;99.90;;;;;;5015847;28;20029;-81
2023/04/24 03:42:54;;;;;;;1.63;1.33;;;11.10;99.90;;;;;;5015210;28;20030;-81
2023/04/24 03:45:20;;;;;;;2.03;0.90;;;11.00;99.90;;;;;;5015428;28;20018;-81
2023/04/24 03:47:46;;;;;;;4.00;1.02;;;11.00;99.90;;;;;;5015480;28;20036;-81
2023/04/24 03:50:11;;;;;;;1.50;0.90;;;10.90;99.90;;;;;;5017079;28;20036;-81
2023/04/24 03:52:37;;;;;;;0.52;0.40;;;10.90;99.90;;;;;;5035625;28;20041;-82
2023/04/24 03:55:02;;;;;;;0.50;0.40;;;10.90;99.90;;;;;;5035136;28;20429;-82
2023/04/24 03:57:28;;;;;;;1.10;0.40;;;10.90;99.90;;;;;;5034964;28;20053;-82
2023/04/24 03:59:53;;;;;;;2.67;0.90;;;10.80;99.90;;;;;;5033933;28;20105;-82
2023/04/24 04:02:19;;;;;;;1.52;0.35;;;10.80;99.90;;;;;;5034714;28;20033;-82
2023/04/24 04:04:45;;;;;;;1.25;0.32;;;11.20;99.90;;;;;;5034504;28;20022;-82
2023/04/24 04:07:11;;;;;;;0.85;0.50;;;10.80;99.90;;;;;;5035177;28;20455;-82
2023/04/24 04:09:36;;;;;;;0.63;0.55;;;10.80;99.90;;;;;;5035309;28;20037;-81
2023/04/24 04:12:02;;;;;;;0.70;0.52;;;10.80;99.90;;;;;;5034222;28;20029;-82
2023/04/24 04:14:28;;;;;;;1.85;0.80;;;10.70;99.90;;;;;;5035004;28;20025;-82
2023/04/24 04:16:54;;;;;;;1.65;0.82;;;10.70;99.90;;;;;;5019377;28;20544;-82
2023/04/24 04:19:19;;;;;;;1.38;1.02;;;10.80;99.90;;;;;;5013470;28;20084;-82
2023/04/24 04:21:45;;;;;;;1.25;0.73;;;10.70;99.90;;;;;;5015145;28;20585;-82
2023/04/24 04:24:11;;;;;;;1.33;0.68;;;10.70;99.90;;;;;;5015044;28;20022;-81
2023/04/24 04:26:37;;;;;;;2.75;0.82;;;10.80;99.90;;;;;;5014415;28;20034;-81
2023/04/24 04:29:03;;;;;;;1.20;0.73;;;10.80;99.90;;;;;;5014959;28;20041;-82
2023/04/24 04:31:30;;;;;;;1.17;0.70;;;10.70;99.90;;;;;;5014854;28;20422;-82
2023/04/24 04:33:55;;;;;;;3.22;0.90;;;10.80;99.90;;;;;;5014162;28;20038;-82
2023/04/24 04:36:21;;;;;;;1.45;0.82;;;10.80;99.90;;;;;;5014572;28;20116;-82
2023/04/24 04:38:46;;;;;;;3.53;0.80;;;10.90;99.90;;;;;;5014532;28;20026;-82
2023/04/24 04:41:12;;;;;;;1.67;0.90;;;10.90;99.90;;;;;;5013685;28;20029;-82
2023/04/24 04:43:39;;;;;;;1.30;1.00;;;10.90;99.90;;;;;;5014721;28;20065;-82
2023/04/24 04:46:05;;;;;;;1.85;0.80;;;11.00;99.90;;;;;;5013791;28;20036;-82
2023/04/24 04:48:31;;;;;;;0.80;0.80;;;11.00;99.90;;;;;;5014268;28;20026;-81
2023/04/24 04:50:57;;;;;;;6.13;1.10;;;10.90;99.90;;;;;;5014465;28;20064;-82
2023/04/24 04:53:23;;;;;;;2.22;0.73;;;11.10;99.90;;;;;;5013303;28;20026;-82
2023/04/24 04:55:49;;;;;;;1.20;0.57;;;11.00;99.90;;;;;;5008941;28;20486;-81
2023/04/24 04:58:15;;;;;;;0.75;0.65;;;11.00;99.90;;;;;;4994673;28;20032;-81
2023/04/24 05:00:41;;;;;;;0.95;0.70;;;11.00;99.90;;;;;;4993071;28;20080;-81
2023/04/24 05:03:06;;;;;;;1.95;0.65;;;11.00;99.90;;;;;;4994166;28;20404;-82
2023/04/24 05:05:32;;;;;;;3.38;1.00;;;11.00;99.90;;;;;;4994354;28;20046;-82
2023/04/24 05:07:57;;;;;;;3.03;1.10;;;11.00;99.90;;;;;;4994059;28;20053;-81
2023/04/24 05:10:23;;;;;;;1.27;0.70;;;10.90;99.90;;;;;;4994672;28;20130;-82
2023/04/24 05:12:49;;;;;;;3.50;0.93;;;11.00;99.90;;;;;;4994691;28;20034;-82
2023/04/24 05:15:15;;;;;;;2.63;0.80;;;10.90;99.90;;;;;;4993400;28;20042;-81
2023/04/24 05:17:40;;;;;;;0.75;0.50;;;11.00;99.90;;;;;;4994199;28;20117;-80
2023/04/24 05:20:06;;;;;;;1.08;0.50;;;11.00;99.90;;;;;;4994503;28;20022;-80
2023/04/24 05:22:32;;;;;;;0.60;0.60;;;11.00;99.90;;;;;;4993575;28;20030;-80
2023/04/24 05:24:58;;;;;;;4.88;0.95;;;10.90;99.90;;;;;;4994297;28;20386;-80
2023/04/24 05:27:24;;;;;;;1.90;1.27;;;10.90;99.90;;;;;;4994267;28;20022;-80
2023/04/24 05:29:50;;;;;;;2.47;0.80;;;10.80;99.90;;;;;;4993614;28;20030;-81
2023/04/24 05:32:16;;;;;;;3.78;1.90;;;10.80;99.90;;;;;;4993985;28;20030;-80
2023/04/24 05:34:41;;;;;;;6.25;2.08;;;10.70;99.90;;;;;;4993955;28;20430;-80
2023/04/24 05:37:09;;;;;;;3.53;1.67;;;10.60;99.90;;;;;;4993465;28;20479;-80
2023/04/24 05:39:36;;;;;;;2.78;1.70;;;10.60;99.90;;;;;;4994035;28;20037;-80
2023/04/24 05:42:03;;;;;;;2.85;1.90;;;10.50;99.90;;;;;;4993829;28;20027;-80
2023/04/24 05:44:28;;;;;;;5.75;3.20;;;10.40;99.90;;;;;;4993219;28;20449;-80
2023/04/24 05:46:55;;;;;;;15.55;5.00;;;10.30;99.90;;;;;;4994041;28;20137;-80
2023/04/24 05:49:21;;;;;;;5.43;4.07;;;10.30;99.90;;;;;;4992884;28;20430;-80
2023/04/24 05:51:46;;;;;;;10.52;5.63;;;10.20;99.90;;;;;;4993888;28;20023;-82
2023/04/24 05:54:12;;;;;;;7.93;5.60;;;10.00;99.90;;;;;;4993662;28;20018;-82
2023/04/24 05:56:38;;;;;;;8.15;5.72;;;10.10;99.90;;;;;;4992738;28;20407;-82
2023/04/24 05:59:04;;;;;;;13.02;6.90;;;10.20;99.90;;;;;;4993405;28;20026;-82
2023/04/24 06:01:31;;;;;;;18.98;8.35;;;10.10;99.90;;;;;;4994082;28;20481;-81
2023/04/24 06:03:56;;;;;;;16.33;7.53;;;10.10;99.90;;;;;;4992691;28;20034;-81
2023/04/24 06:06:23;;;;;;;14.00;8.60;;;10.10;99.90;;;;;;4998369;28;20025;-82
2023/04/24 06:08:49;;;;;;;15.45;8.52;;;10.20;99.90;;;;;;5003510;28;20022;-82
2023/04/24 06:11:14;;;;;;;12.50;8.38;;;10.20;99.90;;;;;;5000665;28;20529;-82
2023/04/24 06:13:40;;;;;;;17.08;8.85;;;10.20;99.90;;;;;;5002481;28;20072;-82
2023/04/24 06:16:06;;;;;;;9.73;7.75;;;10.20;99.90;;;;;;5003937;28;20030;-82
2023/04/24 06:18:31;;;;;;;12.20;8.15;;;10.20;99.90;;;;;;5002442;28;20022;-82
2023/04/24 06:20:57;;;;;;;20.40;8.05;;;10.10;99.90;;;;;;5002554;28;20037;-81
2023/04/24 06:23:22;;;;;;;23.33;9.45;;;10.10;99.90;;;;;;5001908;28;20029;-82
2023/04/24 06:25:48;;;;;;;20.50;8.82;;;10.10;99.90;;;;;;5002687;28;20077;-82
2023/04/24 06:28:14;;;;;;;20.15;8.32;;;10.10;99.90;;;;;;5001345;28;20436;-82
2023/04/24 06:30:39;;;;;;;13.52;7.45;;;10.10;99.90;;;;;;5002705;28;20049;-81
2023/04/24 06:33:05;;;;;;;16.08;7.82;;;10.00;99.90;;;;;;5001731;28;20056;-81
2023/04/24 06:35:30;;;;;;;15.98;8.00;;;10.10;99.90;;;;;;5001556;28;20099;-80
2023/04/24 06:37:56;;;;;;;20.70;7.90;;;10.10;99.90;;;;;;5001665;28;20081;-82
2023/04/24 06:40:22;;;;;;;16.27;7.00;;;10.20;99.90;;;;;;5002593;28;20037;-82
2023/04/24 06:42:47;;;;;;;14.55;7.25;;;10.20;99.90;;;;;;5002995;28;20534;-82
2023/04/24 06:45:13;;;;;;;16.10;7.07;;;10.10;99.90;;;;;;5001192;28;20513;-82
2023/04/24 06:47:39;;;;;;;18.75;6.55;;;10.20;99.90;;;;;;5000613;28;20467;-82
2023/04/24 06:50:05;;;;;;;24.63;7.18;;;10.10;99.90;;;;;;5001832;28;20018;-82
2023/04/24 06:52:32;;;;;;;22.63;6.15;;;10.10;99.90;;;;;;5002994;28;20101;-82
2023/04/24 06:55:02;;;;;;;22.40;6.20;;;10.20;99.90;;;;;;5000585;28;20493;-82
2023/04/24 06:57:28;;;;;;;21.57;5.87;;;10.20;99.90;;;;;;5001381;28;20101;-84
2023/04/24 06:59:54;;;;;;;21.17;5.07;;;10.90;99.90;;;;;;4998795;28;20397;-82
2023/04/24 07:02:19;;;;;;;19.70;5.35;;;10.20;99.90;;;;;;4994087;28;20034;-81
2023/04/24 07:04:47;;;;;;;23.77;5.78;;;10.10;99.90;;;;;;4994582;28;20518;-81
2023/04/24 07:07:14;;;;;;;21.40;6.43;;;10.10;99.90;;;;;;4994866;28;20130;-81
2023/04/24 07:09:42;;;;;;;21.85;5.55;;;10.10;99.90;;;;;;5001561;28;20114;-81
2023/04/24 07:12:08;;;;;;;25.55;5.30;;;10.40;99.90;;;;;;4999961;28;20019;-81
2023/04/24 07:14:33;;;;;;;23.75;5.78;;;10.20;99.90;;;;;;5000857;28;20080;-82
2023/04/24 07:16:59;;;;;;;18.27;4.88;;;10.10;99.90;;;;;;5002373;28;20043;-82
2023/04/24 07:19:25;;;;;;;20.90;4.65;;;10.20;99.90;;;;;;5001075;28;20061;-82
2023/04/24 07:21:50;;;;;;;14.15;4.70;;;10.10;99.90;;;;;;4999864;28;20140;-82
2023/04/24 07:24:16;;;;;;;16.60;4.45;;;10.10;99.90;;;;;;5003198;28;20062;-82
2023/04/24 07:26:41;;;;;;;59.08;6.65;;;10.10;99.90;;;;;;5005684;28;20524;-82
2023/04/24 07:29:07;;;;;;;12.38;3.95;;;10.10;99.90;;;;;;4991736;28;20030;-82
2023/04/24 07:31:33;;;;;;;18.52;3.60;;;10.10;99.90;;;;;;4992630;28;20027;-82
2023/04/24 07:33:59;;;;;;;14.43;4.07;;;10.00;99.90;;;;;;4992358;28;20485;-82
2023/04/24 07:36:25;;;;;;;13.13;3.65;;;10.00;99.90;;;;;;4991518;28;20490;-80
2023/04/24 07:38:52;;;;;;;20.05;3.90;;;10.00;99.90;;;;;;5006178;28;20041;-81
2023/04/24 07:41:17;;;;;;;19.63;3.97;;;10.00;99.90;;;;;;5011622;28;20112;-82
2023/04/24 07:43:44;;;;;;;23.98;4.53;;;10.00;99.90;;;;;;5011830;28;20061;-84
2023/04/24 07:46:09;;;;;;;24.67;4.80;;;10.00;99.90;;;;;;5011971;28;20026;-83
2023/04/24 07:48:35;;;;;;;14.88;3.40;;;10.00;99.90;;;;;;5011452;28;20026;-82
2023/04/24 07:51:01;;;;;;;19.05;3.97;;;10.10;99.90;;;;;;5011318;28;20412;-83
2023/04/24 07:53:27;;;;;;;20.25;3.95;;;10.00;99.90;;;;;;5011561;28;20538;-81
2023/04/24 07:55:55;;;;;;;31.55;5.20;;;10.10;99.90;;;;;;5011753;28;20050;-83
2023/04/24 07:58:21;;;;;;;20.88;4.03;;;10.10;99.90;;;;;;5011695;28;20449;-82
2023/04/24 08:00:47;;;;;;;18.25;3.88;;;10.20;99.90;;;;;;5011788;28;20034;-83
2023/04/24 08:03:12;;;;;;;21.02;3.95;;;10.20;99.90;;;;;;5012546;28;20017;-83
2023/04/24 08:05:38;;;;;;;15.02;3.17;;;10.20;99.90;;;;;;5029880;28;20029;-83
2023/04/24 08:08:04;;;;;;;23.30;3.45;;;10.20;99.90;;;;;;5031226;28;20029;-84
2023/04/24 08:10:30;;;;;;;16.92;3.35;;;10.10;99.90;;;;;;5030588;28;20029;-83
2023/04/24 08:12:55;;;;;;;16.20;3.10;;;10.10;99.90;;;;;;5031342;28;20091;-84
2023/04/24 08:15:21;;;;;;;15.75;3.38;;;10.10;99.90;;;;;;5032478;28;20385;-84
2023/04/24 08:17:47;;;;;;;18.73;4.40;;;10.20;99.90;;;;;;5033700;28;20539;-82
2023/04/24 08:20:15;;;;;;;21.60;3.58;;;10.20;99.90;;;;;;5002712;28;20109;-83
2023/04/24 08:22:42;;;;;;;12.55;3.38;;;10.30;99.90;;;;;;4995167;28;20027;-83
2023/04/24 08:25:09;;;;;;;18.83;3.55;;;10.20;99.90;;;;;;5019336;28;20040;-83
2023/04/24 08:27:36;;;;;;;18.20;3.38;;;10.30;99.90;;;;;;5034811;28;20033;-82
2023/04/24 08:30:03;;;;;;;8.85;2.45;;;10.20;99.90;;;;;;5034438;28;20033;-82
2023/04/24 08:32:28;;;;;;;15.68;2.80;;;10.20;99.90;;;;;;5032827;28;20160;-83
2023/04/24 08:34:56;;;;;;;22.30;4.63;;;10.20;99.90;;;;;;5034832;28;20112;-81
2023/04/24 08:37:26;;;;;;;13.30;3.38;;;10.10;99.90;;;;;;5034558;28;20033;-82
2023/04/24 08:39:52;;;;;;;14.30;3.10;;;10.10;99.90;;;;;;5021968;28;20089;-82
2023/04/24 08:42:19;;;;;;;18.85;3.05;;;10.20;99.90;;;;;;5014099;28;20579;-82
2023/04/24 08:44:45;;;;;;;15.18;2.35;;;10.10;99.90;;;;;;5014577;28;20026;-83
2023/04/24 08:47:11;;;;;;;11.38;2.67;;;10.20;99.90;;;;;;5013124;28;20025;-85
2023/04/24 08:49:38;;;;;;;12.77;2.75;;;10.20;99.90;;;;;;5014086;28;20038;-82
2023/04/24 08:52:05;;;;;;;15.30;2.70;;;10.20;99.90;;;;;;5013711;28;20029;-84
2023/04/24 08:54:31;;;;;;;14.35;2.55;;;10.60;99.90;;;;;;5012971;28;20109;-84
2023/04/24 08:57:01;;;;;;;13.90;3.03;;;10.30;99.90;;;;;;5014320;28;20148;-84
2023/04/24 08:59:28;;;;;;;5.03;2.35;;;10.30;99.90;;;;;;5013810;28;20029;-83
2023/04/24 09:01:55;;;;;;;7.13;2.42;;;10.30;99.90;;;;;;5013845;28;20042;-84
2023/04/24 09:04:24;;;;;;;20.70;2.63;;;10.30;99.90;;;;;;5013514;28;20026;-84
2023/04/24 09:06:57;;;;;;;6.55;2.20;;;10.30;99.90;;;;;;5013164;28;20038;-83
2023/04/24 09:09:28;;;;;;;6.90;2.38;;;10.30;99.90;;;;;;5014024;28;20052;-84
2023/04/24 09:11:55;;;;;;;6.55;1.83;;;10.30;99.90;;;;;;5014225;28;20051;-83
2023/04/24 09:14:22;;;;;;;4.93;2.20;;;10.30;99.90;;;;;;5012592;28;20093;-83
2023/04/24 09:16:48;;;;;;;10.75;2.33;;;10.30;99.90;;;;;;5013194;28;20041;-83
2023/04/24 09:19:14;;;;;;;6.65;2.25;;;10.30;99.90;;;;;;5013005;28;20522;-83
2023/04/24 09:21:41;;;;;;;5.43;1.67;;;10.20;99.90;;;;;;5013037;28;20053;-83
2023/04/24 09:24:17;;;;;;;10.07;2.58;;;10.30;99.90;;;;;;5013758;28;20045;-83
2023/04/24 09:26:43;;;;;;;8.30;2.40;;;10.30;99.90;;;;;;5013108;28;20021;-82
2023/04/24 09:29:17;;;;;;;3.88;1.58;;;10.40;99.90;;;;;;5012257;28;20026;-82
2023/04/24 09:31:44;;;;;;;10.10;1.40;;;10.30;99.90;;;;;;5013502;28;20117;-81
2023/04/24 09:34:09;;;;;;;6.63;1.55;;;10.30;99.90;;;;;;5014999;28;20033;-82
2023/04/24 09:36:39;;;;;;;5.10;1.70;;;10.30;99.90;;;;;;5032808;28;20393;-82
2023/04/24 09:39:10;;;;;;;11.50;1.92;;;10.20;99.90;;;;;;5033296;28;20025;-82
2023/04/24 09:41:46;;;;;;;6.80;1.20;;;10.20;99.90;;;;;;5032499;28;20026;-81
2023/04/24 09:44:22;;;;;;;5.82;1.50;;;10.10;99.90;;;;;;5010744;28;20030;-84
2023/04/24 09:46:56;;;;;;;4.85;1.40;;;10.10;99.90;;;;;;5013178;28;20030;-82
2023/04/24 09:49:24;;;;;;;3.35;1.58;;;10.10;99.90;;;;;;5005953;28;20064;-82
2023/04/24 09:51:50;;;;;;;8.18;2.50;;;10.10;99.90;;;;;;5007031;28;20474;-81
2023/04/24 09:54:20;;;;;;;9.23;1.40;;;10.10;99.90;;;;;;4995954;28;20077;-82
2023/04/24 09:56:47;;;;;;;12.43;1.45;;;10.10;99.90;;;;;;4992806;28;20414;-81
2023/04/24 09:59:18;;;;;;;3.08;1.17;;;10.20;99.90;;;;;;4993333;28;20028;-81
2023/04/24 10:01:48;;;;;;;6.97;1.25;;;10.10;99.90;;;;;;4996420;28;20104;-82
2023/04/24 10:04:19;;;;;;;4.80;1.25;;;10.10;99.90;;;;;;5011621;28;20022;-82
2023/04/24 10:06:45;;;;;;;7.40;1.45;;;10.10;99.90;;;;;;5030432;28;20067;-82
2023/04/24 10:09:12;;;;;;;6.20;1.73;;;10.10;99.90;;;;;;5032245;28;20017;-83
2023/04/24 10:11:45;;;;;;;3.00;1.40;;;10.10;99.90;;;;;;5032095;28;20033;-82
2023/04/24 10:14:30;;;;;;;8.10;1.58;;;10.10;99.90;;;;;;5031894;28;20053;-83
2023/04/24 10:16:59;;;;;;;5.75;1.15;;;10.30;99.90;;;;;;5012409;28;20044;-85
2023/04/24 10:19:26;;;;;;;23.20;1.80;;;10.30;99.90;;;;;;5012139;28;20029;-83
2023/04/24 10:21:54;;;;;;;7.28;1.45;;;10.30;99.90;;;;;;5012869;28;20061;-82
2023/04/24 10:24:22;;;;;;;2.90;0.95;;;10.30;99.90;;;;;;5012040;28;20106;-81
2023/04/24 10:26:48;;;;;;;4.93;0.82;;;10.30;99.90;;;;;;5011918;28;20480;-81
2023/04/24 10:29:18;;;;;;;7.07;1.05;;;10.20;99.90;;;;;;5010720;28;20022;-81
2023/04/24 10:31:45;;;;;;;4.15;0.88;;;10.40;99.90;;;;;;5024257;28;20025;-81
2023/04/24 10:34:11;;;;;;;9.13;1.50;;;10.10;99.90;;;;;;5030510;28;20022;-82
2023/04/24 10:36:42;;;;;;;5.38;0.98;;;10.10;99.90;;;;;;5030270;28;20037;-82
2023/04/24 10:39:11;;;;;;;8.38;2.83;;;10.00;99.90;;;;;;5028929;28;20075;-82
2023/04/24 10:41:37;;;;;;;9.77;1.75;;;10.00;99.90;;;;;;5015860;28;20079;-82
2023/04/24 10:44:08;;;;;;;9.23;1.48;;;10.00;99.90;;;;;;5009490;28;20072;-83
2023/04/24 10:46:34;;;;;;;;;;;10.10;99.90;;;;;;5019272;28;20030;-82
2023/04/24 10:49:04;;;;;;;6.63;1.48;;;10.10;99.90;;;;;;5016669;28;20326;-83
2023/04/24 10:51:55;;;;;;;4.80;1.08;;;10.10;99.90;;;;;;5032206;28;20033;-82
2023/04/24 10:54:28;;;;;;;4.22;0.80;;;10.10;99.90;;;;;;5031768;28;20083;-82
2023/04/24 10:57:20;;;;;;;7.63;1.40;;;10.10;99.90;;;;;;5032061;28;20362;-82
2023/04/24 10:59:48;;;;;;;3.53;1.02;;;10.10;99.90;;;;;;5030515;28;20128;-82
2023/04/24 11:02:15;;;;;;;2.35;1.02;;;10.20;99.90;;;;;;5030543;28;20021;-82
2023/04/24 11:04:42;;;;;;;8.00;1.27;;;10.20;99.90;;;;;;5028396;28;20071;-82
2023/04/24 11:07:09;;;;;;;4.15;1.02;;;10.20;99.90;;;;;;4995353;28;20121;-82
2023/04/24 11:09:36;;;;;;;12.00;1.95;;;10.30;99.90;;;;;;4992908;28;20038;-81
2023/04/24 11:12:10;;;;;;;6.40;1.30;;;10.30;99.90;;;;;;5011681;28;20033;-82
2023/04/24 11:14:59;;;;;;;3.47;1.10;;;10.40;99.90;;;;;;5005310;28;20061;-82
2023/04/24 11:17:39;;;;;;;9.05;1.73;;;10.40;99.90;;;;;;5011246;28;20069;-82
2023/04/24 11:20:10;;;;;;;6.25;1.60;;;10.40;99.90;;;;;;4998718;28;20034;-81
2023/04/24 11:22:39;;;;;;;7.05;1.02;;;10.40;99.90;;;;;;5004185;28;20033;-82
2023/04/24 11:25:06;;;;;;;7.28;2.10;;;10.40;99.90;;;;;;5007901;28;20391;-82
2023/04/24 11:27:40;;;;;;;6.72;1.80;;;10.40;99.90;;;;;;5000083;28;20060;-82
2023/04/24 11:30:06;;;;;;;7.47;1.40;;;10.40;99.90;;;;;;5001503;28;20033;-81
2023/04/24 11:32:39;;;;;;;6.82;1.77;;;10.30;99.90;;;;;;5000157;28;20490;-82
2023/04/24 11:35:17;;;;;;;8.95;1.67;;;10.30;99.90;;;;;;4999260;28;20053;-81
2023/04/24 11:37:46;;;;;;;10.77;1.55;;;10.40;99.90;;;;;;5001494;28;20050;-80
2023/04/24 11:40:15;;;;;;;7.45;1.25;;;10.30;99.90;;;;;;4999434;28;20015;-80
2023/04/24 11:42:44;;;;;;;6.73;0.87;;;10.40;99.90;;;;;;4999647;28;20107;-81
2023/04/24 11:45:15;;;;;;;5.03;1.38;;;10.40;99.90;;;;;;4998860;28;20261;-81
2023/04/24 11:47:42;;;;;;;8.13;1.58;;;10.40;99.90;;;;;;4990786;28;20022;-81
2023/04/24 11:50:10;;;;;;;2.05;0.68;;;10.40;99.90;;;;;;4994516;28;20030;-82
2023/04/24 11:52:41;;;;;;;5.80;0.80;;;10.50;99.90;;;;;;4995934;28;20100;-80
2023/04/24 11:55:22;;;;;;;2.10;0.70;;;10.50;99.90;;;;;;4999827;28;20120;-80
2023/04/24 11:57:49;;;;;;;2.33;0.93;;;10.60;99.90;;;;;;5006136;28;20049;-80
2023/04/24 12:00:30;;;;;;;9.25;0.85;;;10.70;99.90;;;;;;5004353;28;20042;-81
2023/04/24 12:03:11;;;;;;;7.82;1.42;;;10.70;99.90;;;;;;5003717;28;20026;-82
2023/04/24 12:05:38;;;;;;;5.32;1.88;;;10.70;99.90;;;;;;5001207;28;20045;-82
2023/04/24 12:08:04;;;;;;;4.35;1.02;;;10.70;99.90;;;;;;4997509;28;20022;-82
2023/04/24 12:10:31;;;;;;;6.93;1.75;;;10.70;99.90;;;;;;4997753;28;20044;-87
2023/04/24 12:12:58;;;;;;;8.65;1.60;;;10.80;99.90;;;;;;5004797;28;20018;-82
2023/04/24 12:15:24;;;;;;;9.32;1.65;;;10.80;99.90;;;;;;5011233;28;20034;-83
2023/04/24 12:17:54;;;;;;;5.90;1.42;;;10.80;99.90;;;;;;5012853;28;20033;-81
2023/04/24 12:20:28;;;;;;;7.72;1.60;;;10.90;99.90;;;;;;5011436;28;20663;-80
2023/04/24 12:22:57;;;;;;;7.13;1.58;;;10.90;99.90;;;;;;5012525;28;20048;-81
2023/04/24 12:25:30;;;;;;;22.83;1.83;;;10.90;99.90;;;;;;5013861;28;20021;-81
2023/04/24 12:28:16;;;;;;;3.63;1.58;;;10.90;99.90;;;;;;5012617;28;20626;-81
2023/04/24 12:30:48;;;;;;;4.65;1.58;;;10.90;99.90;;;;;;5013324;28;20042;-80
2023/04/24 12:33:18;;;;;;;7.22;1.88;;;10.90;99.90;;;;;;5012523;28;20100;-81
2023/04/24 12:35:43;;;;;;;8.85;1.63;;;10.90;99.90;;;;;;5013094;28;20058;-81
2023/04/24 12:38:12;;;;;;;6.97;1.70;;;10.90;99.90;;;;;;5012233;28;20113;-81
2023/04/24 12:40:38;;;;;;;7.10;2.38;;;10.90;99.90;;;;;;5012820;28;20034;-81
2023/04/24 12:43:14;;;;;;;10.57;1.83;;;10.90;99.90;;;;;;5012671;28;20123;-81
2023/04/24 12:45:40;;;;;;;6.70;1.98;;;10.90;99.90;;;;;;5012352;28;20557;-81